createdAt,value
2023-04-01T00:02:07.583Z,2.51
2023-04-01T00:04:34.014Z,1.99
2023-04-01T00:07:00.454Z,2.27
2023-04-01T00:09:26.849Z,2.53
2023-04-01T00:11:56.488Z,2.06
2023-04-01T00:14:22.930Z,1.96
2023-04-01T00:16:49.375Z,2.19
2023-04-01T00:19:15.994Z,2.21
2023-04-01T00:21:42.373Z,2.16
2023-04-01T00:24:08.755Z,2.15
2023-04-01T00:26:35.177Z,2.12
2023-04-01T00:29:01.604Z,2.01
2023-04-01T00:31:28.054Z,1.96
2023-04-01T00:33:54.548Z,1.77
2023-04-01T00:36:21.003Z,1.98
2023-04-01T00:38:47.422Z,1.95
2023-04-01T00:41:13.786Z,1.88
2023-04-01T00:43:42.652Z,1.91
2023-04-01T00:46:09.044Z,1.76
2023-04-01T00:48:35.399Z,1.78
2023-04-01T00:51:01.883Z,2.05
2023-04-01T00:53:29.433Z,1.99
2023-04-01T00:55:56.001Z,1.90
2023-04-01T00:58:22.483Z,2.03
2023-04-01T01:00:49.237Z,1.85
2023-04-01T01:03:15.651Z,1.88
2023-04-01T01:05:48.916Z,1.55
2023-04-01T01:08:16.107Z,1.58
2023-04-01T01:10:42.668Z,1.34
2023-04-01T01:13:10.860Z,1.54
2023-04-01T01:15:37.226Z,1.42
2023-04-01T01:18:06.407Z,1.51
2023-04-01T01:20:32.862Z,1.80
2023-04-01T01:22:59.270Z,1.65
2023-04-01T01:25:25.646Z,1.62
2023-04-01T01:27:52.273Z,1.40
2023-04-01T01:30:18.651Z,1.56
2023-04-01T01:32:45.258Z,1.59
2023-04-01T01:35:11.649Z,1.93
2023-04-01T01:37:38.038Z,1.51
2023-04-01T01:40:04.408Z,1.70
2023-04-01T01:42:30.781Z,1.98
2023-04-01T01:44:57.279Z,1.80
2023-04-01T01:47:23.702Z,1.49
2023-04-01T01:49:50.163Z,1.54
2023-04-01T01:52:16.552Z,1.41
2023-04-01T01:54:42.902Z,1.34
2023-04-01T01:57:09.354Z,1.44
2023-04-01T01:59:35.907Z,1.20
2023-04-01T02:02:02.307Z,1.28
2023-04-01T02:04:28.882Z,1.25
2023-04-01T02:06:55.300Z,1.48
2023-04-01T02:09:21.694Z,1.21
2023-04-01T02:11:48.102Z,1.42
2023-04-01T02:14:14.483Z,1.16
2023-04-01T02:16:40.850Z,1.59
2023-04-01T02:19:07.226Z,1.33
2023-04-01T02:21:33.695Z,1.19
2023-04-01T02:24:00.050Z,1.83
2023-04-01T02:26:26.445Z,1.49
2023-04-01T02:28:52.804Z,1.37
2023-04-01T02:31:19.224Z,1.49
2023-04-01T02:33:45.613Z,1.20
2023-04-01T02:36:12.063Z,1.26
2023-04-01T02:38:38.540Z,1.39
2023-04-01T02:41:04.902Z,1.56
2023-04-01T02:43:31.268Z,1.43
2023-04-01T02:45:57.624Z,1.33
2023-04-01T02:48:23.997Z,1.52
2023-04-01T02:50:50.524Z,1.59
2023-04-01T02:53:16.994Z,1.38
2023-04-01T02:55:43.407Z,1.53
2023-04-01T02:58:09.866Z,1.63
2023-04-01T03:00:36.231Z,1.96
2023-04-01T03:03:02.747Z,1.69
2023-04-01T03:05:29.210Z,2.07
2023-04-01T03:07:55.606Z,1.64
2023-04-01T03:10:21.984Z,1.63
2023-04-01T03:12:48.363Z,1.47
2023-04-01T03:15:14.770Z,1.79
2023-04-01T03:17:41.209Z,1.59
2023-04-01T03:20:07.599Z,1.33
2023-04-01T03:22:33.994Z,1.60
2023-04-01T03:25:00.418Z,1.44
2023-04-01T03:27:26.793Z,1.44
2023-04-01T03:29:53.247Z,1.91
2023-04-01T03:32:19.636Z,1.87
2023-04-01T03:34:46.017Z,1.51
2023-04-01T03:37:12.410Z,1.58
2023-04-01T03:39:38.781Z,1.46
2023-04-01T03:42:05.165Z,1.92
2023-04-01T03:44:31.528Z,1.66
2023-04-01T03:46:57.967Z,1.73
2023-04-01T03:49:24.561Z,1.53
2023-04-01T03:51:50.974Z,1.66
2023-04-01T03:54:17.368Z,1.34
2023-04-01T03:56:43.826Z,1.71
2023-04-01T03:59:10.227Z,1.49
2023-04-01T04:01:36.604Z,1.50
2023-04-01T04:04:03.001Z,1.52
2023-04-01T04:06:29.399Z,1.43
2023-04-01T04:08:55.850Z,1.48
2023-04-01T04:11:22.251Z,1.36
2023-04-01T04:13:48.628Z,1.63
2023-04-01T04:16:15.126Z,1.57
2023-04-01T04:18:41.548Z,1.53
2023-04-01T04:21:07.922Z,1.58
2023-04-01T04:23:34.300Z,1.84
2023-04-01T04:26:00.809Z,2.10
2023-04-01T04:28:27.186Z,2.18
2023-04-01T04:30:53.789Z,1.60
2023-04-01T04:33:20.159Z,1.98
2023-04-01T04:35:46.541Z,1.67
2023-04-01T04:38:12.909Z,1.53
2023-04-01T04:40:39.291Z,2.02
2023-04-01T04:43:05.706Z,1.86
2023-04-01T04:45:32.453Z,1.71
2023-04-01T04:47:59.015Z,2.27
2023-04-01T04:50:25.504Z,1.96
2023-04-01T04:52:52.143Z,2.15
2023-04-01T04:55:18.511Z,1.68
2023-04-01T04:57:44.889Z,1.91
2023-04-01T05:00:11.260Z,1.95
2023-04-01T05:02:37.814Z,1.71
2023-04-01T05:05:04.303Z,1.69
2023-04-01T05:07:30.669Z,2.21
2023-04-01T05:09:57.051Z,1.88
2023-04-01T05:12:23.422Z,2.35
2023-04-01T05:14:49.833Z,2.16
2023-04-01T05:17:16.321Z,2.00
2023-04-01T05:19:42.768Z,1.92
2023-04-01T05:22:11.245Z,1.92
2023-04-01T05:24:38.836Z,1.86
2023-04-01T05:27:07.269Z,1.72
2023-04-01T05:29:33.673Z,1.70
2023-04-01T05:32:00.140Z,1.33
2023-04-01T05:34:26.623Z,1.69
2023-04-01T05:36:53.004Z,1.52
2023-04-01T05:39:19.382Z,1.49
2023-04-01T05:41:45.896Z,1.56
2023-04-01T05:44:12.372Z,1.49
2023-04-01T05:46:38.837Z,2.04
2023-04-01T05:49:05.222Z,1.26
2023-04-01T05:51:31.644Z,1.28
2023-04-01T05:53:58.028Z,1.26
2023-04-01T05:56:24.491Z,1.30
2023-04-01T05:58:50.893Z,1.50
2023-04-01T06:01:17.371Z,1.48
2023-04-01T06:03:44.087Z,1.31
2023-04-01T06:06:10.615Z,1.76
2023-04-01T06:08:37.097Z,1.43
2023-04-01T06:11:03.490Z,1.28
2023-04-01T06:13:29.984Z,1.93
2023-04-01T06:15:56.817Z,1.37
2023-04-01T06:18:23.208Z,1.26
2023-04-01T06:20:49.585Z,1.86
2023-04-01T06:23:15.979Z,1.70
2023-04-01T06:25:42.338Z,1.62
2023-04-01T06:28:09.316Z,1.70
2023-04-01T06:30:35.835Z,1.49
2023-04-01T06:33:02.232Z,1.42
2023-04-01T06:35:28.707Z,1.27
2023-04-01T06:37:55.235Z,1.21
2023-04-01T06:40:21.604Z,1.51
2023-04-01T06:42:48.003Z,1.16
2023-04-01T06:45:14.493Z,1.23
2023-04-01T06:47:43.859Z,1.29
2023-04-01T06:50:11.748Z,1.32
2023-04-01T06:52:38.269Z,1.34
2023-04-01T06:55:04.768Z,1.31
2023-04-01T06:57:31.202Z,1.69
2023-04-01T06:59:57.675Z,1.35
2023-04-01T07:02:24.234Z,1.52
2023-04-01T07:04:50.750Z,2.01
2023-04-01T07:07:17.147Z,1.89
2023-04-01T07:09:43.547Z,1.84
2023-04-01T07:12:10.103Z,1.48
2023-04-01T07:14:36.669Z,1.62
2023-04-01T07:17:03.187Z,1.93
2023-04-01T07:19:29.631Z,1.35
2023-04-01T07:21:56.195Z,1.62
2023-04-01T07:24:22.562Z,1.34
2023-04-01T07:26:49.061Z,1.41
2023-04-01T07:29:15.667Z,1.27
2023-04-01T07:31:42.048Z,1.38
2023-04-01T07:34:08.399Z,2.20
2023-04-01T07:36:34.807Z,1.77
2023-04-01T07:39:01.262Z,1.68
2023-04-01T07:41:27.702Z,1.35
2023-04-01T07:43:54.137Z,1.07
2023-04-01T07:46:20.613Z,1.12
2023-04-01T07:48:47.092Z,1.14
2023-04-01T07:51:13.486Z,1.24
2023-04-01T07:53:39.864Z,1.26
2023-04-01T07:56:06.291Z,1.39
2023-04-01T07:58:32.783Z,1.59
2023-04-01T08:00:59.221Z,1.65
2023-04-01T08:03:25.774Z,1.41
2023-04-01T08:05:52.298Z,1.19
2023-04-01T08:08:18.666Z,1.48
2023-04-01T08:10:45.075Z,1.12
2023-04-01T08:13:11.507Z,1.28
2023-04-01T08:15:37.875Z,1.16
2023-04-01T08:18:04.373Z,0.96
2023-04-01T08:20:30.788Z,1.18
2023-04-01T08:22:57.230Z,1.30
2023-04-01T08:25:23.738Z,1.08
2023-04-01T08:27:50.101Z,0.72
2023-04-01T08:30:16.493Z,1.04
2023-04-01T08:32:42.922Z,1.09
2023-04-01T08:35:09.399Z,1.21
2023-04-01T08:37:35.845Z,1.28
2023-04-01T08:40:02.206Z,1.45
2023-04-01T08:42:28.605Z,1.12
2023-04-01T08:44:54.987Z,1.24
2023-04-01T08:47:21.360Z,1.02
2023-04-01T08:49:47.764Z,0.97
2023-04-01T08:52:14.391Z,1.16
2023-04-01T08:54:40.783Z,1.36
2023-04-01T08:57:07.235Z,1.59
2023-04-01T08:59:33.634Z,1.14
2023-04-01T09:02:00.178Z,1.00
2023-04-01T09:04:26.725Z,1.03
2023-04-01T09:06:53.188Z,1.06
2023-04-01T09:09:19.554Z,0.87
2023-04-01T09:11:46.014Z,0.84
2023-04-01T09:14:12.452Z,0.93
2023-04-01T09:16:38.884Z,0.85
2023-04-01T09:19:05.291Z,0.77
2023-04-01T09:21:31.666Z,0.74
2023-04-01T09:23:58.061Z,1.07
2023-04-01T09:26:24.490Z,1.11
2023-04-01T09:28:51.017Z,0.94
2023-04-01T09:31:17.445Z,0.98
2023-04-01T09:33:43.848Z,1.24
2023-04-01T09:36:10.290Z,1.01
2023-04-01T09:38:36.752Z,1.04
2023-04-01T09:41:03.229Z,1.22
2023-04-01T09:43:29.623Z,1.40
2023-04-01T09:45:56.077Z,1.06
2023-04-01T09:48:22.549Z,1.17
2023-04-01T09:50:49.070Z,1.00
2023-04-01T09:53:15.495Z,1.00
2023-04-01T09:55:41.946Z,1.16
2023-04-01T09:58:08.315Z,0.78
2023-04-01T10:00:34.766Z,0.96
2023-04-01T10:03:01.271Z,1.26
2023-04-01T10:05:27.735Z,1.19
2023-04-01T10:07:54.198Z,1.05
2023-04-01T10:10:20.579Z,0.87
2023-04-01T10:12:46.937Z,0.93
2023-04-01T10:15:13.381Z,1.06
2023-04-01T10:17:39.843Z,0.90
2023-04-01T10:20:06.231Z,0.87
2023-04-01T10:22:32.655Z,1.04
2023-04-01T10:24:59.044Z,1.19
2023-04-01T10:27:25.495Z,1.41
2023-04-01T10:29:51.901Z,1.72
2023-04-01T10:32:18.271Z,1.18
2023-04-01T10:34:44.632Z,1.13
2023-04-01T10:37:11.112Z,1.41
2023-04-01T10:39:37.511Z,0.96
2023-04-01T10:42:03.926Z,1.25
2023-04-01T10:44:30.317Z,1.01
2023-04-01T10:46:56.748Z,0.67
2023-04-01T10:49:23.566Z,0.65
2023-04-01T10:51:49.975Z,0.67
2023-04-01T10:54:16.458Z,0.99
2023-04-01T10:56:42.854Z,1.05
2023-04-01T10:59:09.331Z,0.89
2023-04-01T11:01:36.019Z,1.19
2023-04-01T11:04:02.461Z,1.01
2023-04-01T11:06:28.914Z,1.13
2023-04-01T11:08:55.366Z,1.02
2023-04-01T11:11:21.813Z,0.78
2023-04-01T11:13:48.292Z,0.81
2023-04-01T11:16:14.785Z,0.65
2023-04-01T11:18:41.567Z,1.11
2023-04-01T11:21:08.127Z,0.78
2023-04-01T11:23:34.573Z,0.94
2023-04-01T11:26:01.039Z,1.20
2023-04-01T11:28:28.023Z,0.83
2023-04-01T11:30:54.408Z,0.89
2023-04-01T11:33:21.277Z,1.05
2023-04-01T11:35:47.840Z,1.08
2023-04-01T11:38:14.233Z,0.98
2023-04-01T11:40:40.597Z,1.11
2023-04-01T11:43:07.165Z,1.18
2023-04-01T11:45:33.994Z,1.36
2023-04-01T11:48:00.736Z,1.06
2023-04-01T11:50:27.393Z,0.95
2023-04-01T11:52:53.803Z,1.29
2023-04-01T11:55:20.343Z,0.82
2023-04-01T11:57:46.765Z,0.73
2023-04-01T12:00:13.265Z,0.90
2023-04-01T12:02:39.738Z,1.34
2023-04-01T12:05:06.254Z,1.07
2023-04-01T12:07:32.698Z,0.77
2023-04-01T12:09:59.256Z,0.88
2023-04-01T12:12:25.735Z,0.77
2023-04-01T12:14:52.115Z,1.00
2023-04-01T12:17:18.539Z,0.85
2023-04-01T12:19:45.066Z,0.66
2023-04-01T12:22:11.450Z,0.73
2023-04-01T12:24:37.884Z,0.81
2023-04-01T12:27:04.420Z,0.78
2023-04-01T12:29:30.834Z,0.73
2023-04-01T12:31:57.438Z,0.73
2023-04-01T12:34:23.987Z,0.80
2023-04-01T12:36:51.404Z,0.85
2023-04-01T12:39:17.911Z,0.76
2023-04-01T12:41:44.324Z,0.60
2023-04-01T12:44:10.815Z,0.68
2023-04-01T12:46:37.422Z,0.81
2023-04-01T12:49:03.962Z,0.99
2023-04-01T12:51:30.540Z,0.77
2023-04-01T12:53:56.932Z,0.80
2023-04-01T12:56:23.348Z,0.90
2023-04-01T12:58:49.781Z,0.86
2023-04-01T13:01:16.251Z,0.94
2023-04-01T13:03:42.719Z,0.68
2023-04-01T13:06:09.292Z,0.64
2023-04-01T13:08:35.929Z,1.05
2023-04-01T13:11:02.423Z,1.12
2023-04-01T13:13:28.832Z,0.93
2023-04-01T13:15:55.289Z,1.10
2023-04-01T13:18:21.799Z,0.80
2023-04-01T13:20:48.199Z,0.61
2023-04-01T13:23:14.581Z,0.95
2023-04-01T13:25:40.968Z,0.78
2023-04-01T13:28:07.560Z,0.99
2023-04-01T13:30:34.110Z,0.79
2023-04-01T13:33:00.948Z,0.96
2023-04-01T13:35:27.531Z,0.97
2023-04-01T13:37:54.195Z,1.01
2023-04-01T13:40:20.724Z,1.03
2023-04-01T13:42:49.432Z,0.79
2023-04-01T13:45:15.859Z,0.83
2023-04-01T13:47:42.319Z,0.53
2023-04-01T13:50:08.732Z,0.50
2023-04-01T13:52:38.004Z,0.40
2023-04-01T13:55:04.490Z,0.31
2023-04-01T13:57:31.034Z,0.43
2023-04-01T13:59:57.549Z,0.51
2023-04-01T14:02:24.112Z,1.43
2023-04-01T14:04:50.522Z,0.67
2023-04-01T14:07:16.914Z,0.66
2023-04-01T14:09:43.864Z,0.73
2023-04-01T14:12:10.474Z,0.71
2023-04-01T14:14:38.818Z,0.72
2023-04-01T14:17:05.469Z,0.87
2023-04-01T14:19:31.875Z,0.98
2023-04-01T14:21:58.532Z,0.77
2023-04-01T14:24:24.983Z,0.83
2023-04-01T14:26:51.341Z,0.73
2023-04-01T14:29:17.710Z,0.72
2023-04-01T14:31:44.226Z,1.62
2023-04-01T14:34:13.703Z,1.25
2023-04-01T14:36:40.137Z,0.92
2023-04-01T14:39:06.590Z,1.23
2023-04-01T14:41:33.150Z,1.26
2023-04-01T14:43:59.827Z,1.21
2023-04-01T14:46:26.309Z,1.38
2023-04-01T14:48:52.823Z,2.62
2023-04-01T14:51:19.227Z,2.13
2023-04-01T14:53:45.727Z,2.22
2023-04-01T14:56:12.698Z,1.65
2023-04-01T14:58:39.098Z,1.80
2023-04-01T15:01:05.690Z,1.80
2023-04-01T15:03:32.308Z,2.01
2023-04-01T15:05:58.948Z,2.57
2023-04-01T15:08:25.421Z,2.26
2023-04-01T15:10:52.511Z,2.54
2023-04-01T15:13:21.024Z,2.91
2023-04-01T15:15:49.004Z,2.49
2023-04-01T15:18:15.624Z,2.84
2023-04-01T15:20:42.080Z,2.66
2023-04-01T15:23:08.592Z,2.91
2023-04-01T15:25:35.330Z,2.17
2023-04-01T15:28:01.843Z,2.18
2023-04-01T15:30:28.306Z,2.72
2023-04-01T15:32:54.860Z,1.89
2023-04-01T15:35:21.434Z,1.63
2023-04-01T15:37:47.835Z,1.32
2023-04-01T15:40:14.300Z,1.59
2023-04-01T15:42:40.704Z,1.75
2023-04-01T15:45:07.266Z,1.50
2023-04-01T15:47:33.897Z,1.17
2023-04-01T15:50:00.391Z,1.20
2023-04-01T15:52:26.793Z,0.71
2023-04-01T15:54:53.216Z,0.73
2023-04-01T15:57:19.691Z,1.22
2023-04-01T15:59:46.469Z,1.34
2023-04-01T16:02:13.018Z,1.45
2023-04-01T16:04:39.656Z,1.38
2023-04-01T16:07:06.163Z,0.85
2023-04-01T16:09:32.697Z,1.09
2023-04-01T16:11:59.210Z,1.25
2023-04-01T16:14:25.661Z,1.50
2023-04-01T16:16:52.224Z,1.21
2023-04-01T16:19:18.678Z,2.44
2023-04-01T16:21:45.075Z,1.67
2023-04-01T16:24:11.781Z,1.79
2023-04-01T16:26:38.448Z,1.78
2023-04-01T16:29:05.063Z,1.52
2023-04-01T16:31:31.617Z,1.50
2023-04-01T16:33:58.312Z,1.26
2023-04-01T16:36:24.666Z,0.96
2023-04-01T16:38:51.018Z,0.92
2023-04-01T16:41:17.437Z,0.89
2023-04-01T16:43:43.848Z,1.36
2023-04-01T16:46:10.282Z,1.22
2023-04-01T16:48:36.943Z,1.06
2023-04-01T16:51:03.407Z,1.05
2023-04-01T16:53:29.840Z,0.94
2023-04-01T16:55:56.248Z,1.07
2023-04-01T16:58:22.709Z,0.96
2023-04-01T17:00:49.422Z,1.66
2023-04-01T17:03:15.948Z,1.30
2023-04-01T17:05:42.347Z,0.96
2023-04-01T17:08:08.757Z,0.86
2023-04-01T17:10:35.373Z,1.07
2023-04-01T17:13:02.226Z,1.65
2023-04-01T17:15:28.794Z,1.45
2023-04-01T17:17:55.407Z,1.11
2023-04-01T17:20:21.924Z,1.11
2023-04-01T17:22:48.342Z,1.13
2023-04-01T17:25:14.720Z,0.94
2023-04-01T17:27:41.129Z,1.19
2023-04-01T17:30:07.529Z,1.06
2023-04-01T17:32:33.969Z,1.06
2023-04-01T17:35:00.369Z,1.22
2023-04-01T17:37:26.770Z,1.11
2023-04-01T17:39:53.221Z,1.20
2023-04-01T17:42:19.631Z,1.38
2023-04-01T17:44:46.079Z,1.46
2023-04-01T17:47:12.638Z,0.96
2023-04-01T17:49:39.042Z,0.88
2023-04-01T17:52:05.492Z,2.95
2023-04-01T17:54:31.990Z,12.11
2023-04-01T17:56:58.429Z,39.26
2023-04-01T17:59:24.970Z,46.00
2023-04-01T18:01:51.429Z,13.66
2023-04-01T18:04:17.897Z,5.68
2023-04-01T18:06:44.272Z,1.86
2023-04-01T18:09:10.681Z,1.66
2023-04-01T18:11:37.109Z,1.87
2023-04-01T18:14:03.703Z,2.81
2023-04-01T18:16:30.197Z,1.51
2023-04-01T18:18:56.687Z,2.49
2023-04-01T18:21:23.081Z,2.54
2023-04-01T18:24:01.136Z,1.67
2023-04-01T18:26:29.037Z,1.95
2023-04-01T18:28:55.450Z,1.68
2023-04-01T18:31:21.910Z,2.51
2023-04-01T18:33:48.367Z,2.34
2023-04-01T18:36:14.788Z,2.62
2023-04-01T18:38:41.328Z,2.79
2023-04-01T18:41:07.853Z,2.81
2023-04-01T18:43:34.247Z,2.39
2023-04-01T18:46:00.771Z,2.40
2023-04-01T18:48:27.349Z,2.84
2023-04-01T18:50:53.808Z,2.43
2023-04-01T18:53:20.390Z,2.04
2023-04-01T18:55:46.792Z,1.75
2023-04-01T18:58:13.178Z,1.56
2023-04-01T19:00:39.612Z,1.50
2023-04-01T19:03:06.296Z,1.66
2023-04-01T19:05:32.983Z,1.18
2023-04-01T19:07:59.404Z,1.35
2023-04-01T19:10:25.760Z,1.42
2023-04-01T19:12:52.172Z,1.47
2023-04-01T19:15:18.601Z,1.79
2023-04-01T19:17:45.021Z,1.89
2023-04-01T19:20:11.568Z,1.47
2023-04-01T19:22:38.141Z,1.85
2023-04-01T19:25:04.759Z,1.98
2023-04-01T19:27:31.498Z,2.04
2023-04-01T19:29:57.877Z,1.96
2023-04-01T19:32:24.288Z,1.88
2023-04-01T19:34:50.814Z,1.75
2023-04-01T19:37:17.612Z,1.82
2023-04-01T19:39:44.152Z,1.56
2023-04-01T19:42:10.593Z,1.36
2023-04-01T19:44:36.975Z,1.34
2023-04-01T19:47:03.387Z,2.10
2023-04-01T19:49:29.819Z,3.13
2023-04-01T19:51:56.240Z,2.20
2023-04-01T19:54:22.785Z,2.22
2023-04-01T19:56:49.578Z,2.02
2023-04-01T19:59:16.035Z,1.87
2023-04-01T20:01:45.115Z,1.93
2023-04-01T20:04:12.179Z,1.73
2023-04-01T20:06:38.764Z,1.56
2023-04-01T20:09:05.343Z,1.59
2023-04-01T20:11:31.758Z,1.48
2023-04-01T20:13:58.274Z,1.52
2023-04-01T20:16:24.764Z,1.33
2023-04-01T20:18:51.172Z,1.86
2023-04-01T20:21:17.869Z,1.77
2023-04-01T20:23:46.263Z,2.41
2023-04-01T20:26:12.712Z,4.30
2023-04-01T20:28:39.332Z,20.10
2023-04-01T20:31:05.787Z,5.63
2023-04-01T20:33:32.355Z,3.77
2023-04-01T20:35:58.877Z,3.02
2023-04-01T20:38:25.290Z,2.46
2023-04-01T20:40:51.695Z,2.10
2023-04-01T20:43:18.285Z,2.06
2023-04-01T20:45:44.783Z,2.05
2023-04-01T20:48:11.244Z,1.82
2023-04-01T20:50:37.673Z,1.50
2023-04-01T20:53:04.093Z,1.60
2023-04-01T20:55:30.554Z,1.46
2023-04-01T20:57:57.010Z,2.37
2023-04-01T21:00:23.433Z,1.62
2023-04-01T21:02:50.522Z,0.96
2023-04-01T21:05:17.188Z,1.00
2023-04-01T21:07:43.839Z,1.25
2023-04-01T21:10:10.473Z,2.41
2023-04-01T21:12:37.305Z,2.56
2023-04-01T21:15:03.889Z,1.44
2023-04-01T21:17:30.593Z,1.39
2023-04-01T21:19:57.021Z,1.44
2023-04-01T21:22:23.494Z,29.83
2023-04-01T21:24:49.984Z,55.28
2023-04-01T21:27:16.361Z,9.32
2023-04-01T21:29:42.856Z,18.42
2023-04-01T21:32:09.494Z,32.77
2023-04-01T21:34:36.113Z,3.57
2023-04-01T21:37:02.520Z,2.14
2023-04-01T21:39:32.016Z,1.54
2023-04-01T21:41:58.617Z,1.58
2023-04-01T21:44:25.090Z,1.77
2023-04-01T21:46:51.491Z,1.95
2023-04-01T21:49:17.919Z,2.20
2023-04-01T21:51:44.459Z,1.86
2023-04-01T21:54:10.929Z,1.61
2023-04-01T21:56:37.422Z,1.73
2023-04-01T21:59:03.886Z,1.35
2023-04-01T22:01:30.327Z,1.46
2023-04-01T22:03:56.928Z,1.42
2023-04-01T22:06:23.360Z,1.67
2023-04-01T22:08:49.805Z,1.18
2023-04-01T22:11:16.178Z,1.43
2023-04-01T22:13:42.593Z,1.92
2023-04-01T22:16:09.036Z,1.70
2023-04-01T22:18:35.643Z,1.86
2023-04-01T22:21:02.073Z,1.68
2023-04-01T22:23:28.551Z,1.77
2023-04-01T22:25:56.459Z,1.54
2023-04-01T22:28:24.012Z,1.92
2023-04-01T22:30:50.582Z,1.83
2023-04-01T22:33:17.044Z,1.92
2023-04-01T22:35:43.587Z,1.95
2023-04-01T22:38:10.266Z,2.06
2023-04-01T22:40:36.662Z,2.69
2023-04-01T22:43:03.187Z,2.46
2023-04-01T22:45:29.764Z,2.18
2023-04-01T22:47:56.215Z,1.96
2023-04-01T22:50:22.754Z,1.94
2023-04-01T22:52:49.142Z,1.97
2023-04-01T22:55:16.093Z,2.25
2023-04-01T22:57:42.577Z,1.97
2023-04-01T23:00:09.135Z,2.26
2023-04-01T23:02:35.726Z,2.33
2023-04-01T23:05:02.275Z,2.32
2023-04-01T23:07:28.670Z,2.08
2023-04-01T23:09:55.077Z,2.52
2023-04-01T23:12:22.045Z,2.12
2023-04-01T23:14:48.537Z,1.84
2023-04-01T23:17:15.002Z,1.80
2023-04-01T23:19:41.492Z,2.14
2023-04-01T23:22:07.938Z,2.42
2023-04-01T23:24:34.425Z,2.06
2023-04-01T23:27:00.782Z,1.72
2023-04-01T23:29:27.222Z,1.53
2023-04-01T23:31:53.738Z,1.43
2023-04-01T23:34:20.190Z,1.42
2023-04-01T23:36:46.746Z,1.45
2023-04-01T23:39:13.166Z,2.78
2023-04-01T23:41:39.572Z,3.30
2023-04-01T23:44:06.186Z,2.53
2023-04-01T23:46:32.631Z,2.21
2023-04-01T23:48:59.059Z,1.55
2023-04-01T23:51:25.526Z,1.24
2023-04-01T23:53:51.911Z,1.20
2023-04-01T23:56:18.724Z,1.36
2023-04-01T23:58:45.162Z,1.61
